createdAt,value
2018-01-03T00:00:46.734Z,65.75
2018-01-03T00:02:24.659Z,65.77
2018-01-03T00:04:01.323Z,65.78
2018-01-03T00:05:38.029Z,65.79
2018-01-03T00:07:15.278Z,65.79
2018-01-03T00:08:54.030Z,65.80
2018-01-03T00:10:30.777Z,65.82
2018-01-03T00:12:08.298Z,65.84
2018-01-03T00:13:45.289Z,65.86
2018-01-03T00:15:24.474Z,65.87
2018-01-03T00:17:02.061Z,65.89
2018-01-03T00:18:39.580Z,65.89
2018-01-03T00:20:16.129Z,65.92
2018-01-03T00:21:53.634Z,65.93
2018-01-03T00:23:30.161Z,65.95
2018-01-03T00:25:07.174Z,65.96
2018-01-03T00:26:43.933Z,65.98
2018-01-03T00:28:20.788Z,65.99
2018-01-03T00:29:57.693Z,66.00
2018-01-03T00:31:34.602Z,66.03
2018-01-03T00:33:11.968Z,66.04
2018-01-03T00:34:49.023Z,66.06
2018-01-03T00:36:25.768Z,66.09
2018-01-03T00:38:02.540Z,66.11
2018-01-03T00:39:39.836Z,66.12
2018-01-03T00:41:17.267Z,66.13
2018-01-03T00:42:55.421Z,66.16
2018-01-03T00:44:32.366Z,66.20
2018-01-03T00:46:17.711Z,66.21
2018-01-03T00:47:54.856Z,66.22
2018-01-03T00:49:31.387Z,66.24
2018-01-03T00:51:08.458Z,66.24
2018-01-03T00:52:47.601Z,66.25
2018-01-03T00:54:25.466Z,66.25
2018-01-03T00:56:02.325Z,66.25
2018-01-03T00:57:40.321Z,66.26
2018-01-03T00:59:17.091Z,66.27
2018-01-03T01:00:54.285Z,66.28
2018-01-03T01:02:30.998Z,66.29
2018-01-03T01:04:08.279Z,66.31
2018-01-03T01:05:48.224Z,66.32
2018-01-03T01:07:25.018Z,66.34
2018-01-03T01:09:01.925Z,66.34
2018-01-03T01:10:39.063Z,66.34
2018-01-03T01:12:16.401Z,66.36
2018-01-03T01:13:53.144Z,66.37
2018-01-03T01:15:29.928Z,66.38
2018-01-03T01:17:07.850Z,66.37
2018-01-03T01:18:45.604Z,66.35
2018-01-03T01:20:22.261Z,66.40
2018-01-03T01:21:58.923Z,66.42
2018-01-03T01:23:36.404Z,66.43
2018-01-03T01:25:13.417Z,66.45
2018-01-03T01:26:51.266Z,66.42
2018-01-03T01:28:28.044Z,66.43
2018-01-03T01:30:10.135Z,66.43
2018-01-03T01:31:47.701Z,66.45
2018-01-03T01:33:25.614Z,66.45
2018-01-03T01:35:03.037Z,66.48
2018-01-03T01:36:39.915Z,66.50
2018-01-03T01:38:16.682Z,66.49
2018-01-03T01:39:53.509Z,66.48
2018-01-03T01:41:31.339Z,66.47
2018-01-03T01:43:08.383Z,66.46
2018-01-03T01:44:45.195Z,66.45
2018-01-03T01:46:22.072Z,66.48
2018-01-03T01:47:59.395Z,66.49
2018-01-03T01:49:36.740Z,66.50
2018-01-03T01:51:13.670Z,66.48
2018-01-03T01:52:51.166Z,66.47
2018-01-03T01:54:28.143Z,66.49
2018-01-03T01:56:05.527Z,66.51
2018-01-03T01:57:42.408Z,66.53
2018-01-03T01:59:19.106Z,66.52
2018-01-03T02:00:56.136Z,66.49
2018-01-03T02:02:33.899Z,66.47
2018-01-03T02:04:10.372Z,66.47
2018-01-03T02:05:47.829Z,66.49
2018-01-03T02:07:24.549Z,66.49
2018-01-03T02:09:02.189Z,66.52
2018-01-03T02:10:39.034Z,66.53
2018-01-03T02:12:16.426Z,66.49
2018-01-03T02:13:53.857Z,66.47
2018-01-03T02:15:38.005Z,66.48
2018-01-03T02:17:15.257Z,66.50
2018-01-03T02:18:52.825Z,66.53
2018-01-03T02:20:30.234Z,66.56
2018-01-03T02:22:10.085Z,66.58
2018-01-03T02:23:46.900Z,66.59
2018-01-03T02:25:24.429Z,66.62
2018-01-03T02:27:01.104Z,66.61
2018-01-03T02:28:38.634Z,66.59
2018-01-03T02:30:17.439Z,66.60
2018-01-03T02:31:53.919Z,66.62
2018-01-03T02:33:30.636Z,66.64
2018-01-03T02:35:08.400Z,66.64
2018-01-03T02:36:45.897Z,66.66
2018-01-03T02:38:34.213Z,66.68
2018-01-03T02:40:11.325Z,66.71
2018-01-03T02:41:48.443Z,66.72
2018-01-03T02:43:27.110Z,66.74
2018-01-03T02:45:03.926Z,66.76
2018-01-03T02:46:41.191Z,66.76
2018-01-03T02:48:17.915Z,66.77
2018-01-03T02:49:54.877Z,66.78
2018-01-03T02:51:32.473Z,66.81
2018-01-03T02:53:10.346Z,66.79
2018-01-03T02:54:46.989Z,66.80
2018-01-03T02:56:23.970Z,66.78
2018-01-03T02:58:00.911Z,66.79
2018-01-03T02:59:38.511Z,66.82
2018-01-03T03:01:15.824Z,66.84
2018-01-03T03:02:53.691Z,66.88
2018-01-03T03:04:30.369Z,66.89
2018-01-03T03:06:07.561Z,66.89
2018-01-03T03:07:53.759Z,66.92
2018-01-03T03:09:30.728Z,66.95
2018-01-03T03:11:07.406Z,66.95
2018-01-03T03:12:44.747Z,66.96
2018-01-03T03:14:26.062Z,66.98
2018-01-03T03:16:02.762Z,66.99
2018-01-03T03:17:39.346Z,67.01
2018-01-03T03:19:16.355Z,67.02
2018-01-03T03:20:54.721Z,67.05
2018-01-03T03:22:31.371Z,67.06
2018-01-03T03:24:08.142Z,67.07
2018-01-03T03:25:45.243Z,67.06
2018-01-03T03:27:22.062Z,67.08
2018-01-03T03:28:59.156Z,67.10
2018-01-03T03:30:37.544Z,67.13
2018-01-03T03:32:24.830Z,67.13
2018-01-03T03:34:01.596Z,67.12
2018-01-03T03:35:38.344Z,67.12
2018-01-03T03:37:15.020Z,67.13
2018-01-03T03:38:52.452Z,67.16
2018-01-03T03:40:29.183Z,67.19
2018-01-03T03:42:05.885Z,67.20
2018-01-03T03:43:42.611Z,67.22
2018-01-03T03:45:24.462Z,67.24
2018-01-03T03:47:01.512Z,67.27
2018-01-03T03:48:38.315Z,67.28
2018-01-03T03:50:14.990Z,67.30
2018-01-03T03:51:53.282Z,67.33
2018-01-03T03:53:30.039Z,67.35
2018-01-03T03:55:07.733Z,67.39
2018-01-03T03:56:44.624Z,67.41
2018-01-03T03:58:21.857Z,67.43
2018-01-03T03:59:59.269Z,67.44
2018-01-03T04:01:37.425Z,67.46
2018-01-03T04:03:14.152Z,67.49
2018-01-03T04:04:51.595Z,67.52
2018-01-03T04:06:29.387Z,67.54
2018-01-03T04:08:11.272Z,67.57
2018-01-03T04:09:47.893Z,67.58
2018-01-03T04:11:25.025Z,67.61
2018-01-03T04:13:01.673Z,67.63
2018-01-03T04:14:38.440Z,67.66
2018-01-03T04:16:15.191Z,67.68
2018-01-03T04:17:52.315Z,67.70
2018-01-03T04:19:28.986Z,67.71
2018-01-03T04:21:05.529Z,67.71
2018-01-03T04:22:43.278Z,67.74
2018-01-03T04:24:19.834Z,67.75
2018-01-03T04:25:56.310Z,67.77
2018-01-03T04:27:33.144Z,67.76
2018-01-03T04:29:10.508Z,67.76
2018-01-03T04:30:47.543Z,67.78
2018-01-03T04:32:24.642Z,67.73
2018-01-03T04:34:01.465Z,67.71
2018-01-03T04:35:39.656Z,67.70
2018-01-03T04:37:16.260Z,67.70
2018-01-03T04:38:52.937Z,67.71
2018-01-03T04:40:30.661Z,67.73
2018-01-03T04:42:07.608Z,67.72
2018-01-03T04:43:44.231Z,67.73
2018-01-03T04:45:21.195Z,67.74
2018-01-03T04:47:00.698Z,67.75
2018-01-03T04:48:38.098Z,67.76
2018-01-03T04:50:15.010Z,67.78
2018-01-03T04:51:51.627Z,67.81
2018-01-03T04:53:29.226Z,67.82
2018-01-03T04:55:06.566Z,67.85
2018-01-03T04:56:43.651Z,67.86
2018-01-03T04:58:20.388Z,67.90
2018-01-03T04:59:57.022Z,67.91
2018-01-03T05:01:34.279Z,67.91
2018-01-03T05:03:10.886Z,67.93
2018-01-03T05:04:48.473Z,67.95
2018-01-03T05:06:25.063Z,67.95
2018-01-03T05:08:03.031Z,67.96
2018-01-03T05:09:51.839Z,67.98
2018-01-03T05:11:29.257Z,68.00
2018-01-03T05:13:05.832Z,68.00
2018-01-03T05:14:42.966Z,68.01
2018-01-03T05:16:20.701Z,68.04
2018-01-03T05:17:57.267Z,68.05
2018-01-03T05:19:34.113Z,68.07
2018-01-03T05:21:11.417Z,68.06
2018-01-03T05:22:48.289Z,68.08
2018-01-03T05:24:25.599Z,68.09
2018-01-03T05:26:02.500Z,68.08
2018-01-03T05:27:39.442Z,68.10
2018-01-03T05:29:16.538Z,68.10
2018-01-03T05:30:53.160Z,68.10
2018-01-03T05:32:30.428Z,68.11
2018-01-03T05:34:07.370Z,68.11
2018-01-03T05:35:43.906Z,68.10
2018-01-03T05:37:20.799Z,68.11
2018-01-03T05:38:57.853Z,68.11
2018-01-03T05:40:34.500Z,68.11
2018-01-03T05:42:11.394Z,68.12
2018-01-03T05:43:48.087Z,68.12
2018-01-03T05:45:27.685Z,68.13
2018-01-03T05:47:04.809Z,68.14
2018-01-03T05:48:45.964Z,68.16
2018-01-03T05:50:22.766Z,68.18
2018-01-03T05:52:00.272Z,68.20
2018-01-03T05:53:38.026Z,68.19
2018-01-03T05:55:14.689Z,68.19
2018-01-03T05:56:52.065Z,68.20
2018-01-03T05:58:28.572Z,68.21
2018-01-03T06:00:06.161Z,68.22
2018-01-03T06:01:57.636Z,68.23
2018-01-03T06:03:34.295Z,68.20
2018-01-03T06:05:10.904Z,68.21
2018-01-03T06:06:48.383Z,68.21
2018-01-03T06:08:25.468Z,68.21
2018-01-03T06:10:02.035Z,68.20
2018-01-03T06:11:39.664Z,68.19
2018-01-03T06:13:17.021Z,68.20
2018-01-03T06:14:54.888Z,68.21
2018-01-03T06:16:32.217Z,68.20
2018-01-03T06:18:10.428Z,68.19
2018-01-03T06:19:47.745Z,68.18
2018-01-03T06:21:24.339Z,68.19
2018-01-03T06:23:01.158Z,68.19
2018-01-03T06:24:38.296Z,68.20
2018-01-03T06:26:14.906Z,68.20
2018-01-03T06:27:51.955Z,68.20
2018-01-03T06:29:29.383Z,68.21
2018-01-03T06:31:06.471Z,68.19
2018-01-03T06:32:43.180Z,68.20
2018-01-03T06:34:19.700Z,68.22
2018-01-03T06:35:56.460Z,68.20
2018-01-03T06:37:33.127Z,68.22
2018-01-03T06:39:22.145Z,68.23
2018-01-03T06:40:58.703Z,68.23
2018-01-03T06:42:35.931Z,68.21
2018-01-03T06:44:12.573Z,68.22
2018-01-03T06:45:49.828Z,68.22
2018-01-03T06:47:27.165Z,68.22
2018-01-03T06:49:04.476Z,68.22
2018-01-03T06:50:41.181Z,68.23
2018-01-03T06:52:17.795Z,68.23
2018-01-03T06:53:54.445Z,68.23
2018-01-03T06:55:32.166Z,68.23
2018-01-03T06:57:08.781Z,68.25
2018-01-03T06:58:45.469Z,68.23
2018-01-03T07:00:30.714Z,68.21
2018-01-03T07:02:07.737Z,68.20
2018-01-03T07:03:45.148Z,68.20
2018-01-03T07:05:21.746Z,68.19
2018-01-03T07:06:58.610Z,68.18
2018-01-03T07:08:35.821Z,68.16
2018-01-03T07:10:12.379Z,68.15
2018-01-03T07:11:48.953Z,68.15
2018-01-03T07:13:25.879Z,68.15
2018-01-03T07:15:03.048Z,68.15
2018-01-03T07:16:39.874Z,68.16
2018-01-03T07:18:17.166Z,68.16
2018-01-03T07:19:53.772Z,68.16
2018-01-03T07:21:30.935Z,68.15
2018-01-03T07:23:07.648Z,68.11
2018-01-03T07:24:44.284Z,67.98
2018-01-03T07:26:21.133Z,67.87
2018-01-03T07:27:58.866Z,67.77
2018-01-03T07:29:36.617Z,67.71
2018-01-03T07:31:14.357Z,67.64
2018-01-03T07:32:52.403Z,67.59
2018-01-03T07:34:29.915Z,67.54
2018-01-03T07:36:07.355Z,67.51
2018-01-03T07:37:44.011Z,67.50
2018-01-03T07:39:20.540Z,67.49
2018-01-03T07:40:57.604Z,67.48
2018-01-03T07:42:34.165Z,67.49
2018-01-03T07:44:11.000Z,67.49
2018-01-03T07:45:47.847Z,67.51
2018-01-03T07:47:26.753Z,67.51
2018-01-03T07:49:03.569Z,67.52
2018-01-03T07:50:40.060Z,67.55
2018-01-03T07:52:18.077Z,67.55
2018-01-03T07:53:54.556Z,67.56
2018-01-03T07:55:31.984Z,67.57
2018-01-03T07:57:08.648Z,67.58
2018-01-03T07:58:45.887Z,67.61
2018-01-03T08:00:30.196Z,67.63
2018-01-03T08:02:06.752Z,67.65
2018-01-03T08:03:43.313Z,67.65
2018-01-03T08:05:20.548Z,67.66
2018-01-03T08:06:57.661Z,67.64
2018-01-03T08:08:35.236Z,67.64
2018-01-03T08:10:12.968Z,67.65
2018-01-03T08:11:50.375Z,67.65
2018-01-03T08:13:27.171Z,67.66
2018-01-03T08:15:03.999Z,67.66
2018-01-03T08:16:41.604Z,67.67
2018-01-03T08:18:18.793Z,67.68
2018-01-03T08:19:55.825Z,67.69
2018-01-03T08:21:33.425Z,67.70
2018-01-03T08:23:16.585Z,67.70
2018-01-03T08:24:53.043Z,67.71
2018-01-03T08:26:30.261Z,67.69
2018-01-03T08:28:06.799Z,67.71
2018-01-03T08:29:43.512Z,67.71
2018-01-03T08:31:21.108Z,67.73
2018-01-03T08:32:58.420Z,67.73
2018-01-03T08:34:35.628Z,67.72
2018-01-03T08:36:22.462Z,67.75
2018-01-03T08:37:59.095Z,67.75
2018-01-03T08:39:35.602Z,67.75
2018-01-03T08:41:12.138Z,67.77
2018-01-03T08:42:49.067Z,67.76
2018-01-03T08:44:26.508Z,67.77
2018-01-03T08:46:03.193Z,67.78
2018-01-03T08:47:39.708Z,67.77
2018-01-03T08:49:17.038Z,67.75
2018-01-03T08:50:54.191Z,67.75
2018-01-03T08:52:30.668Z,67.76
2018-01-03T08:54:07.185Z,67.75
2018-01-03T08:55:43.830Z,67.76
2018-01-03T08:57:20.835Z,67.76
2018-01-03T08:58:57.768Z,67.76
2018-01-03T09:00:34.666Z,67.77
2018-01-03T09:02:12.007Z,67.76
2018-01-03T09:03:48.986Z,67.78
2018-01-03T09:05:25.648Z,67.80
2018-01-03T09:07:02.958Z,67.79
2018-01-03T09:08:39.729Z,67.81
2018-01-03T09:10:18.140Z,67.81
2018-01-03T09:11:55.429Z,67.83
2018-01-03T09:13:32.736Z,67.83
2018-01-03T09:15:09.487Z,67.82
2018-01-03T09:16:48.054Z,67.83
2018-01-03T09:18:24.537Z,67.84
2018-01-03T09:20:01.056Z,67.84
2018-01-03T09:21:37.693Z,67.82
2018-01-03T09:23:15.603Z,67.81
2018-01-03T09:24:52.329Z,67.80
2018-01-03T09:26:28.944Z,67.79
2018-01-03T09:28:06.663Z,67.76
2018-01-03T09:29:44.317Z,67.75
2018-01-03T09:31:20.964Z,67.72
2018-01-03T09:32:57.613Z,67.71
2018-01-03T09:34:34.272Z,67.72
2018-01-03T09:36:11.606Z,67.71
2018-01-03T09:37:50.040Z,67.72
2018-01-03T09:39:26.666Z,67.72
2018-01-03T09:41:03.577Z,67.69
2018-01-03T09:42:40.936Z,67.66
2018-01-03T09:44:17.612Z,67.66
2018-01-03T09:45:54.480Z,67.65
2018-01-03T09:47:31.213Z,67.65
2018-01-03T09:49:09.065Z,67.66
2018-01-03T09:50:46.416Z,67.64
2018-01-03T09:52:23.012Z,67.64
2018-01-03T09:53:59.700Z,67.65
2018-01-03T09:55:36.722Z,67.65
2018-01-03T09:57:13.181Z,67.66
2018-01-03T09:58:49.761Z,67.66
2018-01-03T10:00:27.789Z,67.67
2018-01-03T10:02:04.641Z,67.68
2018-01-03T10:03:41.202Z,67.68
2018-01-03T10:05:18.401Z,67.66
2018-01-03T10:06:54.965Z,67.66
2018-01-03T10:08:32.905Z,67.66
2018-01-03T10:10:09.510Z,67.70
2018-01-03T10:11:46.918Z,67.66
2018-01-03T10:13:23.551Z,67.65
2018-01-03T10:15:00.800Z,67.66
2018-01-03T10:16:37.499Z,67.66
2018-01-03T10:18:14.585Z,67.66
2018-01-03T10:19:51.146Z,67.66
2018-01-03T10:21:28.044Z,67.64
2018-01-03T10:23:04.712Z,67.63
2018-01-03T10:24:41.482Z,67.62
2018-01-03T10:26:18.770Z,67.64
2018-01-03T10:27:56.572Z,67.64
2018-01-03T10:29:33.850Z,67.62
2018-01-03T10:31:10.458Z,67.62
2018-01-03T10:32:47.144Z,67.60
2018-01-03T10:34:24.114Z,67.59
2018-01-03T10:36:00.708Z,67.59
2018-01-03T10:37:37.256Z,67.59
2018-01-03T10:39:13.796Z,67.60
2018-01-03T10:40:50.953Z,67.58
2018-01-03T10:42:28.261Z,67.59
2018-01-03T10:44:09.861Z,67.60
2018-01-03T10:45:47.223Z,67.56
2018-01-03T10:47:24.797Z,67.57
2018-01-03T10:49:02.210Z,67.57
2018-01-03T10:50:38.864Z,67.56
2018-01-03T10:52:15.594Z,67.56
2018-01-03T10:53:52.883Z,67.56
2018-01-03T10:55:29.438Z,67.56
2018-01-03T10:57:06.293Z,67.56
2018-01-03T10:58:42.919Z,67.54
2018-01-03T11:00:20.414Z,67.53
2018-01-03T11:01:57.771Z,67.46
2018-01-03T11:03:35.202Z,67.51
2018-01-03T11:05:11.730Z,67.50
2018-01-03T11:06:48.767Z,67.48
2018-01-03T11:08:26.010Z,67.49
2018-01-03T11:10:02.623Z,67.48
2018-01-03T11:11:39.109Z,67.47
2018-01-03T11:13:16.092Z,67.47
2018-01-03T11:14:52.736Z,67.45
2018-01-03T11:16:29.593Z,67.44
2018-01-03T11:18:06.896Z,67.44
2018-01-03T11:19:44.143Z,67.40
2018-01-03T11:21:21.357Z,67.38
2018-01-03T11:22:57.912Z,67.35
2018-01-03T11:24:34.802Z,67.33
2018-01-03T11:26:12.160Z,67.31
2018-01-03T11:27:50.330Z,67.29
2018-01-03T11:29:26.953Z,67.28
2018-01-03T11:31:04.492Z,67.25
2018-01-03T11:32:41.355Z,67.23
2018-01-03T11:34:18.209Z,67.22
2018-01-03T11:35:56.444Z,67.22
2018-01-03T11:37:35.808Z,67.21
2018-01-03T11:39:14.517Z,67.21
2018-01-03T11:40:51.566Z,67.19
2018-01-03T11:42:28.444Z,67.18
2018-01-03T11:44:05.143Z,67.17
2018-01-03T11:45:42.122Z,67.17
2018-01-03T11:47:18.826Z,67.15
2018-01-03T11:48:57.799Z,67.15
2018-01-03T11:50:34.483Z,67.13
2018-01-03T11:52:11.113Z,67.11
2018-01-03T11:53:48.496Z,67.12
2018-01-03T11:55:26.378Z,67.10
2018-01-03T11:57:04.033Z,67.09
2018-01-03T11:58:40.850Z,67.08
2018-01-03T12:00:20.540Z,67.07
2018-01-03T12:01:57.488Z,67.06
2018-01-03T12:03:34.889Z,67.03
2018-01-03T12:05:11.439Z,67.03
2018-01-03T12:06:48.887Z,67.04
2018-01-03T12:08:28.391Z,67.02
2018-01-03T12:10:05.077Z,66.98
2018-01-03T12:11:44.648Z,66.98
2018-01-03T12:13:21.768Z,66.97
2018-01-03T12:14:59.700Z,66.94
2018-01-03T12:16:40.622Z,66.93
2018-01-03T12:18:18.956Z,66.91
2018-01-03T12:19:56.586Z,66.90
2018-01-03T12:21:33.612Z,66.90
2018-01-03T12:23:10.974Z,66.90
2018-01-03T12:24:47.584Z,66.90
2018-01-03T12:26:24.866Z,66.88
2018-01-03T12:28:02.819Z,66.87
2018-01-03T12:29:39.417Z,66.88
2018-01-03T12:31:17.337Z,66.87
2018-01-03T12:32:54.402Z,66.87
2018-01-03T12:34:31.571Z,66.88
2018-01-03T12:36:08.984Z,66.89
2018-01-03T12:37:45.968Z,66.88
2018-01-03T12:39:22.758Z,66.87
2018-01-03T12:40:59.910Z,66.85
2018-01-03T12:42:36.547Z,66.83
2018-01-03T12:44:13.938Z,66.82
2018-01-03T12:45:51.837Z,66.81
2018-01-03T12:47:30.490Z,66.82
2018-01-03T12:49:08.179Z,66.81
2018-01-03T12:50:44.948Z,66.80
2018-01-03T12:52:21.570Z,66.81
2018-01-03T12:53:58.433Z,66.81
2018-01-03T12:55:35.079Z,66.81
2018-01-03T12:57:12.447Z,66.80
2018-01-03T12:58:49.150Z,66.81
2018-01-03T13:00:28.363Z,66.81
2018-01-03T13:02:06.616Z,66.81
2018-01-03T13:03:43.317Z,66.79
2018-01-03T13:05:19.904Z,66.77
2018-01-03T13:06:57.185Z,66.77
2018-01-03T13:08:34.014Z,66.79
2018-01-03T13:10:10.715Z,66.78
2018-01-03T13:11:47.404Z,66.78
2018-01-03T13:13:30.777Z,66.77
2018-01-03T13:15:07.453Z,66.76
2018-01-03T13:16:44.407Z,66.76
2018-01-03T13:18:21.690Z,66.74
2018-01-03T13:19:58.844Z,66.71
2018-01-03T13:21:35.609Z,66.71
2018-01-03T13:23:12.264Z,66.70
2018-01-03T13:24:48.864Z,66.70
2018-01-03T13:26:25.903Z,66.70
2018-01-03T13:28:02.532Z,66.69
2018-01-03T13:29:39.933Z,66.70
2018-01-03T13:31:20.217Z,66.69
2018-01-03T13:32:57.452Z,66.70
2018-01-03T13:34:33.972Z,66.70
2018-01-03T13:36:10.802Z,66.71
2018-01-03T13:37:49.499Z,66.69
2018-01-03T13:39:26.565Z,66.68
2018-01-03T13:41:03.158Z,66.67
2018-01-03T13:42:40.749Z,66.66
2018-01-03T13:44:17.922Z,66.64
2018-01-03T13:45:56.034Z,66.65
2018-01-03T13:47:32.662Z,66.64
2018-01-03T13:49:09.583Z,66.63
2018-01-03T13:50:46.290Z,66.63
2018-01-03T13:52:24.067Z,66.63
2018-01-03T13:54:00.797Z,66.63
2018-01-03T13:55:37.554Z,66.63
2018-01-03T13:57:14.622Z,66.64
2018-01-03T13:58:51.938Z,66.61
2018-01-03T14:00:30.244Z,66.64
2018-01-03T14:02:06.980Z,66.65
2018-01-03T14:03:44.508Z,66.63
2018-01-03T14:05:21.240Z,66.63
2018-01-03T14:06:59.146Z,66.66
2018-01-03T14:08:39.753Z,66.64
2018-01-03T14:10:18.435Z,66.66
2018-01-03T14:11:55.146Z,66.66
2018-01-03T14:13:33.524Z,66.66
2018-01-03T14:15:10.346Z,66.66
2018-01-03T14:16:54.181Z,66.66
2018-01-03T14:18:31.732Z,66.65
2018-01-03T14:20:08.577Z,66.65
2018-01-03T14:21:45.551Z,66.66
2018-01-03T14:23:25.614Z,66.65
2018-01-03T14:25:02.617Z,66.64
2018-01-03T14:26:39.398Z,66.63
2018-01-03T14:28:16.206Z,66.64
2018-01-03T14:29:57.719Z,66.63
2018-01-03T14:31:34.635Z,66.65
2018-01-03T14:33:11.620Z,66.62
2018-01-03T14:34:48.596Z,66.63
2018-01-03T14:36:27.943Z,66.63
2018-01-03T14:38:05.643Z,66.62
2018-01-03T14:39:42.556Z,66.63
2018-01-03T14:41:19.998Z,66.63
2018-01-03T14:42:57.050Z,66.63
2018-01-03T14:44:33.925Z,66.64
2018-01-03T14:46:11.229Z,66.64
2018-01-03T14:47:48.814Z,66.63
2018-01-03T14:49:26.585Z,66.62
2018-01-03T14:51:03.359Z,66.60
2018-01-03T14:52:40.462Z,66.57
2018-01-03T14:54:18.276Z,66.59
2018-01-03T14:55:56.774Z,66.58
2018-01-03T14:57:33.890Z,66.59
2018-01-03T14:59:11.856Z,66.58
2018-01-03T15:00:53.531Z,66.57
2018-01-03T15:02:31.376Z,66.57
2018-01-03T15:04:09.964Z,66.59
2018-01-03T15:05:50.021Z,66.58
2018-01-03T15:07:31.107Z,66.57
2018-01-03T15:09:10.465Z,66.57
2018-01-03T15:10:48.969Z,66.56
2018-01-03T15:12:32.361Z,66.56
2018-01-03T15:14:09.159Z,66.55
2018-01-03T15:15:46.617Z,66.53
2018-01-03T15:17:23.288Z,66.54
2018-01-03T15:19:01.152Z,66.52
2018-01-03T15:20:38.129Z,66.52
2018-01-03T15:22:15.475Z,66.50
2018-01-03T15:23:55.784Z,66.50
2018-01-03T15:25:33.676Z,66.48
2018-01-03T15:27:10.693Z,66.48
2018-01-03T15:28:50.125Z,66.48
2018-01-03T15:30:31.216Z,66.47
2018-01-03T15:32:10.895Z,66.48
2018-01-03T15:33:48.511Z,66.48
2018-01-03T15:35:25.777Z,66.47
2018-01-03T15:37:04.543Z,66.45
2018-01-03T15:38:41.391Z,66.46
2018-01-03T15:40:19.516Z,66.48
2018-01-03T15:41:57.785Z,66.45
2018-01-03T15:45:13.089Z,66.45
2018-01-03T15:46:50.801Z,66.46
2018-01-03T15:48:27.944Z,66.45
2018-01-03T15:50:05.445Z,66.44
2018-01-03T15:51:42.173Z,66.44
2018-01-03T15:53:18.918Z,66.44
2018-01-03T15:54:56.380Z,66.45
2018-01-03T15:56:39.696Z,66.44
2018-01-03T15:58:18.657Z,66.44
2018-01-03T15:59:55.985Z,66.41
2018-01-03T16:01:34.568Z,66.41
2018-01-03T16:03:13.410Z,66.41
2018-01-03T16:04:51.540Z,66.42
2018-01-03T16:06:28.665Z,66.40
2018-01-03T16:08:09.564Z,66.40
2018-01-03T16:09:49.782Z,66.41
2018-01-03T16:11:28.089Z,66.40
2018-01-03T16:13:04.870Z,66.41
2018-01-03T16:14:45.709Z,66.41
2018-01-03T16:16:28.844Z,66.42
2018-01-03T16:18:06.478Z,66.42
2018-01-03T16:19:45.366Z,66.39
2018-01-03T16:21:23.421Z,66.39
2018-01-03T16:23:01.049Z,66.41
2018-01-03T16:24:41.337Z,66.42
2018-01-03T16:26:18.768Z,66.40
2018-01-03T16:27:55.988Z,66.40
2018-01-03T16:29:32.789Z,66.39
2018-01-03T16:31:09.780Z,66.40
2018-01-03T16:32:46.885Z,66.39
2018-01-03T16:34:25.218Z,66.39
2018-01-03T16:36:03.665Z,66.39
2018-01-03T16:37:42.250Z,66.37
2018-01-03T16:39:20.986Z,66.37
2018-01-03T16:41:00.862Z,66.37
2018-01-03T16:42:39.835Z,66.37
2018-01-03T16:44:17.267Z,66.36
2018-01-03T16:45:56.101Z,66.35
2018-01-03T16:47:35.230Z,66.33
2018-01-03T16:49:17.087Z,66.34
2018-01-03T16:50:55.119Z,66.32
2018-01-03T16:52:38.827Z,66.30
2018-01-03T16:54:16.374Z,66.29
2018-01-03T16:55:54.696Z,66.29
2018-01-03T16:57:32.608Z,66.29
2018-01-03T16:59:10.593Z,66.28
2018-01-03T17:00:49.034Z,66.29
2018-01-03T17:02:25.825Z,66.28
2018-01-03T17:04:02.611Z,66.29
2018-01-03T17:05:40.195Z,66.29
2018-01-03T17:07:20.693Z,66.31
2018-01-03T17:09:00.066Z,66.32
2018-01-03T17:10:39.034Z,66.30
2018-01-03T17:12:18.933Z,66.31
2018-01-03T17:13:56.135Z,66.27
2018-01-03T17:15:35.331Z,66.28
2018-01-03T17:17:14.142Z,66.28
2018-01-03T17:18:53.281Z,66.29
2018-01-03T17:20:32.787Z,66.28
2018-01-03T17:22:11.646Z,66.29
2018-01-03T17:23:52.127Z,66.28
2018-01-03T17:25:31.621Z,66.29
2018-01-03T17:27:09.957Z,66.29
2018-01-03T17:28:49.644Z,66.29
2018-01-03T17:30:33.293Z,66.29
2018-01-03T17:32:13.501Z,66.29
2018-01-03T17:35:36.277Z,66.29
2018-01-03T17:37:17.508Z,66.31
2018-01-03T17:38:55.188Z,66.32
2018-01-03T17:40:33.585Z,66.32
2018-01-03T17:42:13.841Z,66.33
2018-01-03T17:43:52.737Z,66.31
2018-01-03T17:45:40.852Z,66.31
2018-01-03T17:47:19.389Z,66.33
2018-01-03T17:48:57.461Z,66.33
2018-01-03T17:50:36.438Z,66.31
2018-01-03T17:52:14.798Z,66.33
2018-01-03T17:53:52.725Z,66.33
2018-01-03T17:58:25.794Z,66.35
2018-01-03T18:00:04.694Z,66.33
2018-01-03T18:01:42.916Z,66.32
2018-01-03T18:03:19.989Z,66.31
2018-01-03T18:05:00.181Z,66.32
2018-01-03T18:06:42.608Z,66.31
2018-01-03T18:08:22.904Z,66.33
2018-01-03T18:10:00.039Z,66.32
2018-01-03T18:11:39.777Z,66.33
2018-01-03T18:13:19.355Z,66.34
2018-01-03T18:14:58.083Z,66.35
2018-01-03T18:16:39.892Z,66.36
2018-01-03T18:18:21.621Z,66.35
2018-01-03T18:20:00.909Z,66.36
2018-01-03T18:21:39.642Z,66.36
2018-01-03T18:23:19.010Z,66.36
2018-01-03T18:24:56.939Z,66.37
2018-01-03T18:26:35.511Z,66.36
2018-01-03T18:28:16.872Z,66.39
2018-01-03T18:30:03.755Z,66.38
2018-01-03T18:31:47.942Z,66.39
2018-01-03T18:33:31.914Z,66.38
2018-01-03T18:35:16.941Z,66.37
2018-01-03T18:37:02.111Z,66.38
2018-01-03T18:38:47.406Z,66.38
2018-01-03T18:40:29.426Z,66.37
2018-01-03T18:42:11.316Z,66.38
2018-01-03T18:43:59.763Z,66.38
2018-01-03T18:45:42.010Z,66.37
2018-01-03T18:47:20.058Z,66.39
2018-01-03T18:48:58.297Z,66.38
2018-01-03T18:50:35.302Z,66.40
2018-01-03T18:52:13.055Z,66.41
2018-01-03T18:53:54.948Z,66.41
2018-01-03T18:55:35.787Z,66.42
2018-01-03T18:57:13.141Z,66.41
2018-01-03T18:58:50.881Z,66.42
2018-01-03T19:00:33.260Z,66.43
2018-01-03T19:02:12.866Z,66.40
2018-01-03T19:03:52.407Z,66.41
2018-01-03T19:05:30.278Z,66.40
2018-01-03T19:07:09.888Z,66.42
2018-01-03T19:08:48.709Z,66.43
2018-01-03T19:12:04.519Z,66.44
2018-01-03T19:13:44.656Z,66.43
2018-01-03T19:15:22.242Z,66.42
2018-01-03T19:16:59.142Z,66.42
2018-01-03T19:18:36.707Z,66.41
2018-01-03T19:20:14.289Z,66.40
2018-01-03T19:21:51.859Z,66.41
2018-01-03T19:23:28.551Z,66.40
2018-01-03T19:25:05.690Z,66.42
2018-01-03T19:26:42.648Z,66.39
2018-01-03T19:28:20.642Z,66.37
2018-01-03T19:29:57.269Z,66.35
2018-01-03T19:31:33.918Z,66.34
2018-01-03T19:33:10.782Z,66.30
2018-01-03T19:34:48.817Z,66.28
2018-01-03T19:36:25.900Z,66.26
2018-01-03T19:38:03.481Z,66.25
2018-01-03T19:39:40.935Z,66.23
2018-01-03T19:41:18.929Z,66.23
2018-01-03T19:42:56.313Z,66.22
2018-01-03T19:44:33.889Z,66.21
2018-01-03T19:46:10.632Z,66.21
2018-01-03T19:47:47.383Z,66.20
2018-01-03T19:49:25.221Z,66.20
2018-01-03T19:51:02.016Z,66.19
2018-01-03T19:52:39.877Z,66.20
2018-01-03T19:54:16.804Z,66.19
2018-01-03T19:55:55.806Z,66.20
2018-01-03T19:57:32.503Z,66.20
2018-01-03T19:59:09.464Z,66.23
2018-01-03T20:00:46.268Z,66.22
2018-01-03T20:02:22.853Z,66.21
2018-01-03T20:03:59.556Z,66.20
2018-01-03T20:05:37.534Z,66.20
2018-01-03T20:07:15.492Z,66.21
2018-01-03T20:08:52.935Z,66.19
2018-01-03T20:10:29.733Z,66.19
2018-01-03T20:12:08.433Z,66.19
2018-01-03T20:13:45.595Z,66.22
2018-01-03T20:15:23.875Z,66.23
2018-01-03T20:17:02.358Z,66.24
2018-01-03T20:18:40.044Z,66.23
2018-01-03T20:20:16.679Z,66.23
2018-01-03T20:21:54.134Z,66.22
2018-01-03T20:23:30.853Z,66.23
2018-01-03T20:25:07.827Z,66.21
2018-01-03T20:26:47.113Z,66.23
2018-01-03T20:28:27.145Z,66.25
2018-01-03T20:30:05.218Z,66.26
2018-01-03T20:31:45.204Z,66.26
2018-01-03T20:33:21.968Z,66.26
2018-01-03T20:35:00.347Z,66.28
2018-01-03T20:36:37.989Z,66.29
2018-01-03T20:38:16.075Z,66.30
2018-01-03T20:39:52.704Z,66.30
2018-01-03T20:41:29.349Z,66.29
2018-01-03T20:43:06.827Z,66.29
2018-01-03T20:46:23.235Z,66.29
2018-01-03T20:48:01.393Z,66.28
2018-01-03T20:49:38.699Z,66.27
2018-01-03T20:51:21.828Z,66.29
2018-01-03T20:53:03.485Z,66.29
2018-01-03T20:54:49.814Z,66.29
2018-01-03T20:56:27.094Z,66.31
2018-01-03T20:58:04.843Z,66.31
2018-01-03T20:59:42.614Z,66.29
2018-01-03T21:01:19.237Z,66.28
2018-01-03T21:02:55.798Z,66.28
2018-01-03T21:04:33.132Z,66.32
2018-01-03T21:06:11.212Z,66.27
2018-01-03T21:07:50.580Z,66.27
2018-01-03T21:09:28.572Z,66.27